PROFILE

 METAR AND TAF INFORMATION
ADDS - METARS form results

(0840 UTC 18 May 2022)
http://aviationweather.gov/metar/data/
 
PABR 180753Z AUTO 10011G21KT 8SM OVC012 M11/M13 A3030 RMK AO2 SNE13 SLP262 P0000 T11061133 TSNO $
PABR 180526Z 1806/1906 10009KT 4SM -SN OVC014 FM181400 09010KT 3SM BR OVC007 FM182000 12013KT P6SM BKN015 

 AIRPORT MAP

 RUNWAY INFORMATION
Runway 06 Runway length 6500 ft Runway width 150 ft
Runway elevation 44 ft Runway displaced threshold 0 ft Runway heading 90
Runway 24 Runway length 6500 ft Runway width 150 ft
Runway elevation 29 ft Runway displaced threshold 0 ft Runway heading 270

 AIRPORT FREQUENCIES
Type ASOS Name ASOS Frequency 132.15 MHZ
Type CNTR Name ANCHORAGE Frequency 135.3 MHZ
Type CTAF Name CTAF Frequency 123.6 MHZ
Type FSS Name BARROW RDO Frequency 122.2 MHZ

 AIRPORT NEAR NAVIGATION AIDS
Type VOR-DME Name Barrow Frequency 116200 KHZ
Type NDB Name Wiley Frequency 248 KHZ
Type NDB Name Browerville Frequency 281 KHZ